Time;durP1;ratioP1;P1;durP2;ratioP2;P2;SDS_P1;SDS_P2;PMS_P1;PMS_P2;Temp;Humidity;BMP_temperature;BMP_pressure;BME280_temperature;BME280_humidity;BME280_pressure;Samples;Min_cycle;Max_cycle;Signal;HPM_P1;HPM_P2
2022/04/14 00:01:46;;;;;;;12.70;5.32;;;15.80;99.90;;;;;;5094153;28;20466;-57
2022/04/14 00:04:12;;;;;;;8.50;5.28;;;15.80;99.90;;;;;;5090306;28;20394;-57
2022/04/14 00:06:37;;;;;;;16.17;5.53;;;15.70;99.90;;;;;;5096618;28;20061;-57
2022/04/14 00:09:03;;;;;;;13.18;5.13;;;15.70;99.90;;;;;;5083381;28;20027;-57
2022/04/14 00:11:29;;;;;;;11.52;5.45;;;15.70;99.90;;;;;;5075084;28;20047;-57
2022/04/14 00:13:55;;;;;;;10.57;4.78;;;15.70;99.90;;;;;;5079293;28;20025;-55
2022/04/14 00:16:24;;;;;;;14.48;5.50;;;15.70;99.90;;;;;;5089142;28;20028;-57
2022/04/14 00:18:50;;;;;;;13.50;5.53;;;15.60;99.90;;;;;;5095687;28;20020;-56
2022/04/14 00:21:16;;;;;;;10.02;5.30;;;15.60;99.90;;;;;;5095264;28;20027;-56
2022/04/14 00:23:41;;;;;;;10.52;4.93;;;15.50;99.90;;;;;;5095407;28;20389;-57
2022/04/14 00:26:07;;;;;;;10.77;5.20;;;15.40;99.90;;;;;;5095193;28;20073;-57
2022/04/14 00:28:32;;;;;;;11.80;5.53;;;15.40;99.90;;;;;;5094452;28;20058;-57
2022/04/14 00:30:59;;;;;;;13.57;5.63;;;15.30;99.90;;;;;;5113212;28;20494;-54
2022/04/14 00:33:26;;;;;;;10.85;5.00;;;15.20;99.90;;;;;;5113453;28;20027;-55
2022/04/14 00:35:52;;;;;;;14.18;6.50;;;15.20;99.90;;;;;;5095625;28;20424;-56
2022/04/14 00:38:18;;;;;;;13.68;4.95;;;15.10;99.90;;;;;;5113588;28;20016;-53
2022/04/14 00:40:43;;;;;;;11.00;5.05;;;15.00;99.90;;;;;;5113415;28;20024;-57
2022/04/14 00:43:09;;;;;;;11.48;4.68;;;15.00;99.90;;;;;;5095311;28;20032;-56
2022/04/14 00:45:35;;;;;;;11.48;6.25;;;14.90;99.90;;;;;;5095121;28;20474;-56
2022/04/14 00:48:01;;;;;;;10.75;5.07;;;14.90;99.90;;;;;;5113717;28;20051;-52
2022/04/14 00:50:27;;;;;;;15.65;5.70;;;14.90;99.90;;;;;;5095751;28;20066;-54
2022/04/14 00:52:54;;;;;;;11.10;5.50;;;14.90;99.90;;;;;;5095387;28;20090;-56
2022/04/14 00:55:19;;;;;;;16.75;5.80;;;14.80;99.90;;;;;;5113487;28;20027;-56
2022/04/14 00:57:45;;;;;;;12.57;5.60;;;14.80;99.90;;;;;;5113708;28;20011;-56
2022/04/14 01:00:12;;;;;;;10.50;5.20;;;14.70;99.90;;;;;;5095933;28;20020;-56
2022/04/14 01:02:38;;;;;;;8.52;5.47;;;14.60;99.90;;;;;;5095098;28;20085;-56
2022/04/14 01:05:07;;;;;;;10.30;4.75;;;14.50;99.90;;;;;;5095043;28;20019;-54
2022/04/14 01:07:34;;;;;;;7.72;4.97;;;14.50;99.90;;;;;;5113571;28;20500;-56
2022/04/14 01:10:01;;;;;;;11.55;5.10;;;14.40;99.90;;;;;;5095197;28;20027;-54
2022/04/14 01:12:28;;;;;;;9.82;4.65;;;14.40;99.90;;;;;;5113901;28;20115;-55
2022/04/14 01:14:54;;;;;;;17.48;5.07;;;14.40;99.90;;;;;;5094701;28;20036;-57
2022/04/14 01:17:19;;;;;;;10.73;4.93;;;14.40;99.90;;;;;;5111443;28;20046;-54
2022/04/14 01:19:46;;;;;;;15.90;5.68;;;14.40;99.90;;;;;;5092614;28;20028;-57
2022/04/14 01:22:23;;;;;;;9.45;5.05;;;14.40;99.90;;;;;;5074832;28;20062;-55
2022/04/14 01:25:10;;;;;;;8.25;4.97;;;14.40;99.90;;;;;;5093218;28;20470;-57
2022/04/14 01:27:36;;;;;;;9.40;5.25;;;14.40;99.90;;;;;;5074883;28;20058;-55
2022/04/14 01:30:02;;;;;;;14.45;5.60;;;14.40;99.90;;;;;;5075080;28;20021;-57
2022/04/14 01:32:28;;;;;;;10.20;5.05;;;14.40;99.90;;;;;;5092541;28;20107;-56
2022/04/14 01:34:53;;;;;;;13.50;5.47;;;14.30;99.90;;;;;;5074327;28;20028;-54
2022/04/14 01:37:19;;;;;;;10.30;4.90;;;14.20;99.90;;;;;;5074892;28;20024;-56
2022/04/14 01:39:45;;;;;;;8.50;4.82;;;14.30;99.90;;;;;;5095147;28;20043;-55
2022/04/14 01:42:11;;;;;;;12.55;5.68;;;14.30;99.90;;;;;;5096364;28;20024;-57
2022/04/14 01:44:36;;;;;;;7.97;5.43;;;14.30;99.90;;;;;;5096394;28;20020;-56
2022/04/14 01:47:03;;;;;;;10.93;5.03;;;14.20;99.90;;;;;;5096483;28;20059;-56
2022/04/14 01:49:28;;;;;;;12.63;5.57;;;14.20;99.90;;;;;;5107694;28;20027;-55
2022/04/14 01:51:54;;;;;;;10.02;4.60;;;14.10;99.90;;;;;;5098790;28;20024;-57
2022/04/14 01:54:20;;;;;;;10.15;4.88;;;14.10;99.90;;;;;;5098710;28;20024;-56
2022/04/14 01:56:46;;;;;;;10.35;5.95;;;14.00;99.90;;;;;;5098417;28;20493;-56
2022/04/14 01:59:12;;;;;;;11.57;5.55;;;14.00;99.90;;;;;;5099254;28;20024;-57
2022/04/14 02:01:38;;;;;;;9.15;5.32;;;14.00;99.90;;;;;;5098706;28;20040;-56
2022/04/14 02:04:05;;;;;;;13.15;4.97;;;14.00;99.90;;;;;;5098114;28;20089;-54
2022/04/14 02:06:31;;;;;;;11.27;6.05;;;13.90;99.90;;;;;;5098732;28;20057;-55
2022/04/14 02:08:57;;;;;;;13.00;5.85;;;14.00;99.90;;;;;;5116327;28;20034;-57
2022/04/14 02:11:23;;;;;;;14.02;5.93;;;14.00;99.90;;;;;;5098013;28;20039;-57
2022/04/14 02:13:48;;;;;;;8.90;6.18;;;14.00;99.90;;;;;;5097841;28;20055;-53
2022/04/14 02:16:15;;;;;;;13.50;6.43;;;14.10;99.90;;;;;;5116442;28;20103;-57
2022/04/14 02:18:41;;;;;;;11.57;7.07;;;14.10;99.90;;;;;;5116798;28;20373;-56
2022/04/14 02:21:06;;;;;;;12.63;7.22;;;14.10;99.90;;;;;;5101055;28;20016;-56
2022/04/14 02:23:32;;;;;;;12.25;7.90;;;14.20;99.90;;;;;;5077534;28;20024;-57
2022/04/14 02:25:57;;;;;;;16.50;9.98;;;14.20;99.90;;;;;;5077491;28;20030;-55
2022/04/14 02:28:23;;;;;;;22.08;10.55;;;14.30;99.90;;;;;;5078294;28;20028;-55
2022/04/14 02:30:49;;;;;;;21.20;9.40;;;14.40;99.90;;;;;;5077600;28;20028;-58
2022/04/14 02:33:15;;;;;;;19.90;10.25;;;14.40;99.90;;;;;;5095182;28;20028;-56
2022/04/14 02:35:41;;;;;;;19.35;9.68;;;14.50;99.90;;;;;;5077384;28;20398;-56
2022/04/14 02:38:07;;;;;;;17.63;10.15;;;14.50;99.90;;;;;;5077785;28;20024;-55
2022/04/14 02:40:32;;;;;;;18.08;10.60;;;14.50;99.90;;;;;;5095485;28;20087;-56
2022/04/14 02:42:58;;;;;;;21.60;11.27;;;14.50;99.90;;;;;;5102922;28;20016;-55
2022/04/14 02:45:25;;;;;;;20.73;11.15;;;14.50;99.90;;;;;;5097492;28;20032;-55
2022/04/14 02:47:52;;;;;;;20.55;10.65;;;14.50;99.90;;;;;;5110369;28;20098;-57
2022/04/14 02:50:20;;;;;;;21.77;10.88;;;14.50;99.90;;;;;;5094287;28;20046;-55
2022/04/14 02:52:46;;;;;;;24.88;13.00;;;14.50;99.90;;;;;;5077881;28;20028;-54
2022/04/14 02:55:12;;;;;;;18.63;11.20;;;14.40;99.90;;;;;;5077074;28;20169;-52
2022/04/14 02:57:38;;;;;;;21.52;11.88;;;14.40;99.90;;;;;;5077060;28;20088;-51
2022/04/14 03:00:06;;;;;;;19.48;11.27;;;14.40;99.90;;;;;;5095445;28;20087;-54
2022/04/14 03:02:32;;;;;;;22.70;11.57;;;14.40;99.90;;;;;;5076961;28;20053;-53
2022/04/14 03:04:58;;;;;;;19.50;11.82;;;14.40;99.90;;;;;;5094796;28;20024;-54
2022/04/14 03:07:24;;;;;;;20.95;10.63;;;14.30;99.90;;;;;;5095230;28;20020;-52
2022/04/14 03:09:50;;;;;;;19.92;12.35;;;14.30;99.90;;;;;;5077744;28;20028;-51
2022/04/14 03:12:16;;;;;;;22.23;12.10;;;14.30;99.90;;;;;;5076559;28;20394;-54
2022/04/14 03:14:43;;;;;;;20.02;11.48;;;14.30;99.90;;;;;;5076626;28;20069;-55
2022/04/14 03:17:09;;;;;;;29.85;13.60;;;14.20;99.90;;;;;;5077371;28;20115;-54
2022/04/14 03:19:36;;;;;;;23.67;13.13;;;14.20;99.90;;;;;;5076784;28;20197;-55
2022/04/14 03:22:02;;;;;;;22.02;12.93;;;14.20;99.90;;;;;;5095067;28;20044;-53
2022/04/14 03:24:27;;;;;;;35.80;14.60;;;14.20;99.90;;;;;;5076561;28;20513;-52
2022/04/14 03:26:53;;;;;;;20.70;13.07;;;14.20;99.90;;;;;;5076363;28;20026;-51
2022/04/14 03:29:19;;;;;;;25.90;12.88;;;14.20;99.90;;;;;;5076586;28;20060;-51
2022/04/14 03:31:44;;;;;;;24.90;12.38;;;14.20;99.90;;;;;;5085068;28;20089;-51
2022/04/14 03:34:10;;;;;;;22.00;13.25;;;14.20;99.90;;;;;;5114768;28;20024;-54
2022/04/14 03:36:36;;;;;;;24.88;13.38;;;14.20;99.90;;;;;;5092664;28;20024;-51
2022/04/14 03:39:01;;;;;;;25.52;13.57;;;14.20;99.90;;;;;;5076530;28;20028;-54
2022/04/14 03:41:27;;;;;;;23.98;13.60;;;14.20;99.90;;;;;;5085271;28;20016;-53
2022/04/14 03:43:53;;;;;;;21.90;13.23;;;14.20;99.90;;;;;;5094239;28;20032;-55
2022/04/14 03:46:19;;;;;;;29.38;14.75;;;14.20;99.90;;;;;;5094551;28;20024;-56
2022/04/14 03:48:45;;;;;;;25.45;14.15;;;14.20;99.90;;;;;;5094414;28;20048;-53
2022/04/14 03:51:14;;;;;;;26.33;13.35;;;14.20;99.90;;;;;;5076052;28;20020;-56
2022/04/14 03:53:40;;;;;;;26.98;14.55;;;14.20;99.90;;;;;;5076749;28;20054;-53
2022/04/14 03:56:06;;;;;;;25.20;13.48;;;14.20;99.90;;;;;;5096395;28;20031;-57
2022/04/14 03:58:32;;;;;;;31.58;17.15;;;14.20;99.90;;;;;;5096238;28;20024;-56
2022/04/14 04:00:57;;;;;;;28.08;14.95;;;14.20;99.90;;;;;;5114551;28;20020;-55
2022/04/14 04:03:23;;;;;;;22.30;13.40;;;14.10;99.90;;;;;;5114388;28;20072;-57
2022/04/14 04:05:49;;;;;;;26.75;13.13;;;14.10;99.90;;;;;;5095848;28;20114;-57
2022/04/14 04:08:14;;;;;;;25.55;13.93;;;14.10;99.90;;;;;;5096131;28;20026;-59
2022/04/14 04:10:40;;;;;;;23.45;14.85;;;14.10;99.90;;;;;;5078391;28;20052;-54
2022/04/14 04:13:06;;;;;;;25.67;13.30;;;14.00;99.90;;;;;;5094066;28;20039;-57
2022/04/14 04:15:31;;;;;;;25.88;14.13;;;14.00;99.90;;;;;;5093609;28;20012;-55
2022/04/14 04:17:57;;;;;;;27.52;14.77;;;14.00;99.90;;;;;;5093634;28;20390;-57
2022/04/14 04:20:24;;;;;;;30.50;15.57;;;13.90;99.90;;;;;;5093659;28;20024;-53
2022/04/14 04:22:50;;;;;;;26.55;13.82;;;13.90;99.90;;;;;;5075464;28;20062;-55
2022/04/14 04:25:15;;;;;;;32.22;14.02;;;13.90;99.90;;;;;;5093375;28;20012;-55
2022/04/14 04:27:41;;;;;;;27.80;14.45;;;13.80;99.90;;;;;;5075308;28;20051;-56
2022/04/14 04:30:08;;;;;;;27.02;15.45;;;13.80;99.90;;;;;;5089028;28;20394;-55
2022/04/14 04:32:34;;;;;;;24.27;13.35;;;13.80;99.90;;;;;;5113931;28;20012;-56
2022/04/14 04:35:04;;;;;;;26.45;14.82;;;13.90;99.90;;;;;;5114288;28;20037;-54
2022/04/14 04:37:30;;;;;;;25.88;13.52;;;13.80;99.90;;;;;;5114582;28;20034;-56
2022/04/14 04:40:20;;;;;;;30.77;15.15;;;13.90;99.90;;;;;;5096151;28;20115;-53
2022/04/14 04:42:46;;;;;;;28.10;16.02;;;13.90;99.90;;;;;;5097050;28;20019;-54
2022/04/14 04:45:11;;;;;;;21.05;12.70;;;13.90;99.90;;;;;;5113830;28;20111;-55
2022/04/14 04:47:37;;;;;;;23.85;13.50;;;14.00;99.90;;;;;;5096105;28;20024;-56
2022/04/14 04:50:06;;;;;;;27.60;13.63;;;14.00;99.90;;;;;;5113804;28;20027;-56
2022/04/14 04:52:36;;;;;;;22.73;12.82;;;14.10;99.90;;;;;;5094007;28;20539;-54
2022/04/14 04:55:02;;;;;;;22.00;12.65;;;14.10;99.90;;;;;;5093354;28;20040;-54
2022/04/14 04:57:28;;;;;;;25.38;13.68;;;14.10;99.90;;;;;;5091420;28;20016;-53
2022/04/14 04:59:53;;;;;;;26.30;13.55;;;14.10;99.90;;;;;;5095648;28;20016;-55
2022/04/14 05:02:19;;;;;;;20.98;12.63;;;14.10;99.90;;;;;;5095932;28;20020;-56
2022/04/14 05:04:45;;;;;;;23.83;11.65;;;14.20;99.90;;;;;;5095625;28;20039;-55
2022/04/14 05:07:11;;;;;;;19.60;10.93;;;14.20;99.90;;;;;;5104519;28;20037;-52
2022/04/14 05:09:36;;;;;;;20.92;12.02;;;14.20;99.90;;;;;;5075321;28;20028;-53
2022/04/14 05:12:03;;;;;;;19.27;11.50;;;14.20;99.90;;;;;;5093249;28;20088;-57
2022/04/14 05:14:29;;;;;;;18.20;9.82;;;14.30;99.90;;;;;;5095773;28;20103;-53
2022/04/14 05:16:54;;;;;;;19.77;8.70;;;14.30;99.90;;;;;;5097422;28;20109;-53
2022/04/14 05:19:20;;;;;;;16.60;9.75;;;14.40;99.90;;;;;;5097627;28;20106;-57
2022/04/14 05:21:48;;;;;;;17.80;8.18;;;14.40;99.90;;;;;;5079176;28;20023;-54
2022/04/14 05:24:14;;;;;;;17.23;9.55;;;14.50;99.90;;;;;;5079617;28;20111;-52
2022/04/14 05:26:40;;;;;;;19.98;9.25;;;14.40;99.90;;;;;;5078653;28;20028;-52
2022/04/14 05:29:07;;;;;;;17.33;9.35;;;14.50;99.90;;;;;;5079396;28;20035;-52
2022/04/14 05:31:33;;;;;;;17.88;8.63;;;14.60;99.90;;;;;;5097024;28;20528;-55
2022/04/14 05:33:59;;;;;;;17.50;8.88;;;14.50;99.90;;;;;;5096928;28;20024;-52
2022/04/14 05:36:25;;;;;;;16.65;9.20;;;14.60;99.90;;;;;;5078877;28;20027;-51
2022/04/14 05:38:51;;;;;;;17.83;9.98;;;14.70;99.90;;;;;;5078843;28;20055;-53
2022/04/14 05:41:16;;;;;;;16.02;8.77;;;14.70;99.90;;;;;;5096682;28;20027;-56
2022/04/14 05:43:42;;;;;;;12.80;8.45;;;14.80;99.90;;;;;;5098681;28;20107;-52
2022/04/14 05:46:07;;;;;;;15.48;8.45;;;14.80;99.90;;;;;;5117588;28;20030;-51
2022/04/14 05:48:33;;;;;;;14.18;8.43;;;14.90;99.90;;;;;;5099272;28;20020;-55
2022/04/14 05:50:59;;;;;;;15.90;7.20;;;14.90;99.90;;;;;;5098817;28;20024;-52
2022/04/14 05:53:26;;;;;;;16.30;7.32;;;15.00;99.90;;;;;;5098274;28;20439;-53
2022/04/14 05:55:52;;;;;;;15.63;7.32;;;15.10;99.90;;;;;;5099126;28;20030;-55
2022/04/14 05:58:18;;;;;;;15.13;8.07;;;15.10;99.90;;;;;;5098985;28;20111;-51
2022/04/14 06:00:44;;;;;;;17.10;8.93;;;15.30;99.90;;;;;;5099074;28;20487;-52
2022/04/14 06:03:10;;;;;;;15.18;7.45;;;15.30;99.90;;;;;;5098288;28;20032;-52
2022/04/14 06:05:36;;;;;;;14.05;7.60;;;15.40;99.90;;;;;;5098513;28;20118;-53
2022/04/14 06:08:01;;;;;;;12.35;7.03;;;15.40;99.90;;;;;;5098757;28;20024;-53
2022/04/14 06:10:28;;;;;;;13.27;8.18;;;15.50;99.90;;;;;;5098292;28;20065;-50
2022/04/14 06:12:57;;;;;;;13.88;6.50;;;15.50;99.90;;;;;;5116902;28;20038;-52
2022/04/14 06:15:23;;;;;;;12.05;6.63;;;15.50;99.90;;;;;;5098791;28;20030;-54
2022/04/14 06:17:49;;;;;;;11.15;6.25;;;15.50;99.90;;;;;;5098092;28;20098;-52
2022/04/14 06:20:15;;;;;;;13.27;6.35;;;15.60;99.90;;;;;;5116444;28;20054;-54
2022/04/14 06:22:42;;;;;;;11.75;6.38;;;15.60;99.90;;;;;;5098224;28;20060;-52
2022/04/14 06:25:12;;;;;;;12.32;6.38;;;15.70;99.90;;;;;;5107080;28;20020;-52
2022/04/14 06:27:46;;;;;;;20.33;6.65;;;15.70;99.90;;;;;;5077975;28;20399;-53
2022/04/14 06:30:14;;;;;;;13.82;7.38;;;15.80;99.90;;;;;;5095913;28;20462;-51
2022/04/14 06:32:40;;;;;;;19.33;8.60;;;15.80;99.90;;;;;;5095792;28;20024;-53
2022/04/14 06:35:07;;;;;;;16.13;6.95;;;15.80;99.90;;;;;;5095667;28;20084;-54
2022/04/14 06:37:36;;;;;;;15.30;7.85;;;15.80;99.90;;;;;;5095700;28;20020;-55
2022/04/14 06:40:03;;;;;;;16.60;7.43;;;15.90;99.90;;;;;;5095800;28;20016;-53
2022/04/14 06:42:28;;;;;;;14.20;7.65;;;15.90;99.90;;;;;;5077571;28;20020;-52
2022/04/14 06:44:59;;;;;;;11.68;6.85;;;16.00;99.90;;;;;;5078620;28;20103;-53
2022/04/14 06:47:28;;;;;;;11.68;7.18;;;16.10;99.90;;;;;;5079870;28;21770;-55
2022/04/14 06:49:54;;;;;;;20.85;8.20;;;16.10;99.90;;;;;;5097686;28;20027;-55
2022/04/14 06:52:23;;;;;;;13.77;6.60;;;16.20;99.90;;;;;;5115925;28;20027;-54
2022/04/14 06:54:49;;;;;;;12.10;6.10;;;16.20;99.90;;;;;;5114960;28;20028;-52
2022/04/14 06:57:15;;;;;;;13.60;5.70;;;16.30;99.90;;;;;;5097428;28;20027;-56
2022/04/14 06:59:41;;;;;;;13.52;6.43;;;16.30;99.90;;;;;;5078750;28;20173;-57
2022/04/14 07:02:07;;;;;;;11.32;5.18;;;16.30;99.90;;;;;;5077687;28;20065;-54
2022/04/14 07:04:34;;;;;;;12.02;6.53;;;16.40;99.90;;;;;;5095145;28;20416;-52
2022/04/14 07:07:00;;;;;;;13.32;6.53;;;16.40;99.90;;;;;;5077359;28;20031;-57
2022/04/14 07:09:28;;;;;;;10.95;6.00;;;16.40;99.90;;;;;;5077228;28;20024;-57
2022/04/14 07:11:54;;;;;;;11.50;6.97;;;16.40;99.90;;;;;;5077241;28;20070;-55
2022/04/14 07:14:19;;;;;;;9.88;4.80;;;16.30;99.90;;;;;;5076730;28;20047;-51
2022/04/14 07:17:10;;;;;;;14.63;5.40;;;16.30;99.90;;;;;;5077717;28;20478;-50
2022/04/14 07:19:35;;;;;;;10.10;4.82;;;16.20;99.90;;;;;;5095274;28;20026;-52
2022/04/14 07:22:02;;;;;;;7.60;4.40;;;16.20;99.90;;;;;;5092626;28;20067;-55
2022/04/14 07:24:27;;;;;;;8.82;5.22;;;16.10;99.90;;;;;;5113565;28;20020;-55
2022/04/14 07:26:53;;;;;;;13.07;5.95;;;16.10;99.90;;;;;;5076618;28;20089;-54
2022/04/14 07:29:19;;;;;;;11.73;5.78;;;16.00;99.90;;;;;;5076635;28;20023;-56
2022/04/14 07:31:45;;;;;;;11.40;6.35;;;16.00;99.90;;;;;;5088875;28;20095;-57
2022/04/14 07:34:11;;;;;;;6.88;4.40;;;15.80;99.90;;;;;;5114672;28;20020;-55
2022/04/14 07:36:37;;;;;;;13.80;5.40;;;15.80;99.90;;;;;;5096327;28;20363;-57
2022/04/14 07:39:04;;;;;;;14.00;5.63;;;16.00;99.90;;;;;;5115007;28;20016;-51
2022/04/14 07:41:42;;;;;;;11.10;5.57;;;16.00;99.90;;;;;;5114607;28;20058;-50
2022/04/14 07:44:08;;;;;;;8.65;4.95;;;16.00;99.90;;;;;;5076393;28;20024;-55
2022/04/14 07:46:37;;;;;;;6.40;4.57;;;16.10;99.90;;;;;;5084379;28;20028;-52
2022/04/14 07:49:02;;;;;;;7.75;5.10;;;16.10;99.90;;;;;;5094407;28;20069;-51
2022/04/14 07:51:28;;;;;;;8.15;4.50;;;16.10;99.90;;;;;;5093146;28;20428;-57
2022/04/14 07:53:54;;;;;;;8.82;4.07;;;16.00;99.90;;;;;;5093857;28;20078;-55
2022/04/14 07:56:22;;;;;;;8.80;3.90;;;16.00;99.90;;;;;;5076172;28;20024;-52
2022/04/14 07:58:50;;;;;;;8.85;4.40;;;16.10;99.90;;;;;;5076462;28;20028;-54
2022/04/14 08:01:18;;;;;;;13.90;4.38;;;16.10;99.90;;;;;;5094007;28;20382;-51
2022/04/14 08:03:47;;;;;;;10.95;4.28;;;16.20;99.90;;;;;;5093916;28;20026;-55
2022/04/14 08:06:15;;;;;;;8.00;4.32;;;16.30;99.90;;;;;;5089151;28;20036;-56
2022/04/14 08:08:41;;;;;;;12.52;4.95;;;16.30;99.90;;;;;;5111490;28;20031;-55
2022/04/14 08:11:11;;;;;;;16.55;6.38;;;16.40;99.90;;;;;;5077494;28;20101;-55
2022/04/14 08:13:41;;;;;;;9.70;5.13;;;16.30;99.90;;;;;;5093753;28;20425;-51
2022/04/14 08:16:09;;;;;;;8.52;4.60;;;16.20;99.90;;;;;;5093809;28;20020;-51
2022/04/14 08:18:37;;;;;;;9.77;5.28;;;16.40;99.90;;;;;;5076086;28;20040;-54
2022/04/14 08:21:03;;;;;;;9.10;5.75;;;16.30;99.90;;;;;;5075883;28;20056;-56
2022/04/14 08:23:30;;;;;;;10.32;5.90;;;16.40;99.90;;;;;;5093874;28;20543;-55
2022/04/14 08:25:57;;;;;;;10.70;5.82;;;16.60;99.90;;;;;;5075932;28;20028;-54
2022/04/14 08:28:22;;;;;;;16.08;6.35;;;16.50;99.90;;;;;;5075951;28;20119;-52
2022/04/14 08:30:56;;;;;;;11.80;6.70;;;16.50;99.90;;;;;;5095396;28;20110;-56
2022/04/14 08:33:23;;;;;;;13.15;5.72;;;16.30;99.90;;;;;;5096109;28;20027;-56
2022/04/14 08:35:51;;;;;;;11.20;7.72;;;16.40;99.90;;;;;;5096270;28;20023;-54
2022/04/14 08:38:16;;;;;;;17.77;7.93;;;16.50;99.90;;;;;;5114099;28;20019;-54
2022/04/14 08:40:46;;;;;;;18.33;8.25;;;16.40;99.90;;;;;;5113945;28;20027;-55
2022/04/14 08:43:32;;;;;;;11.75;7.43;;;16.40;99.90;;;;;;5095687;28;20469;-50
2022/04/14 08:46:00;;;;;;;18.20;8.45;;;16.40;99.90;;;;;;5113880;28;20377;-50
2022/04/14 08:48:27;;;;;;;14.15;8.00;;;16.40;99.90;;;;;;5094742;28;20046;-52
2022/04/14 08:50:54;;;;;;;14.30;7.80;;;16.40;99.90;;;;;;5095474;28;20024;-48
2022/04/14 08:53:23;;;;;;;13.02;8.13;;;16.50;99.90;;;;;;5095331;28;20031;-53
2022/04/14 08:56:17;;;;;;;10.80;7.10;;;16.50;99.90;;;;;;5113770;28;20023;-50
2022/04/14 08:58:43;;;;;;;17.65;8.10;;;16.60;99.90;;;;;;5113655;28;20016;-50
2022/04/14 09:01:11;;;;;;;17.27;8.60;;;16.80;99.90;;;;;;5113591;28;20019;-49
2022/04/14 09:03:37;;;;;;;16.05;8.75;;;16.90;99.90;;;;;;5095314;28;20030;-49
2022/04/14 09:06:03;;;;;;;16.60;8.63;;;16.80;99.90;;;;;;5089220;28;20020;-51
2022/04/14 09:08:29;;;;;;;12.93;8.13;;;16.60;99.90;;;;;;5110040;28;20026;-52
2022/04/14 09:10:55;;;;;;;20.35;10.52;;;16.60;99.90;;;;;;5086034;28;20032;-51
2022/04/14 09:13:20;;;;;;;16.65;9.18;;;16.60;99.90;;;;;;5075064;28;20054;-50
2022/04/14 09:15:57;;;;;;;14.40;8.85;;;16.50;99.90;;;;;;5075549;28;20115;-53
2022/04/14 09:18:56;;;;;;;23.13;9.55;;;16.40;99.90;;;;;;5092925;28;20028;-50
2022/04/14 09:21:22;;;;;;;16.38;9.35;;;16.50;99.90;;;;;;5092780;28;20040;-49
2022/04/14 09:23:54;;;;;;;13.20;8.10;;;16.50;99.90;;;;;;5106335;28;20074;-53
2022/04/14 09:26:39;;;;;;;10.50;6.82;;;16.70;99.90;;;;;;5075220;28;20073;-57
2022/04/14 09:29:10;;;;;;;12.63;7.20;;;16.90;99.90;;;;;;5092947;28;20063;-56
2022/04/14 09:31:47;;;;;;;12.27;6.40;;;17.00;99.90;;;;;;5085536;28;20028;-56
2022/04/14 09:34:15;;;;;;;16.13;8.23;;;17.00;99.90;;;;;;5093228;28;20038;-56
2022/04/14 09:36:41;;;;;;;15.43;7.28;;;17.00;99.90;;;;;;5095613;28;20024;-56
2022/04/14 09:39:07;;;;;;;9.20;5.35;;;17.00;99.90;;;;;;5113230;28;20042;-54
2022/04/14 09:41:39;;;;;;;7.70;5.35;;;17.10;99.90;;;;;;5093304;28;20134;-53
2022/04/14 09:44:14;;;;;;;10.52;5.50;;;17.40;99.90;;;;;;5092991;28;20024;-51
2022/04/14 09:46:45;;;;;;;8.57;5.47;;;17.40;99.90;;;;;;5082265;28;20072;-53
2022/04/14 09:49:12;;;;;;;9.63;6.03;;;17.60;99.90;;;;;;5095728;28;20231;-56
2022/04/14 09:51:39;;;;;;;7.07;4.28;;;17.70;99.90;;;;;;5113322;28;20088;-53
2022/04/14 09:54:12;;;;;;;3.55;2.88;;;17.80;99.90;;;;;;5094876;28;20175;-55
2022/04/14 09:56:51;;;;;;;8.45;3.65;;;18.00;99.90;;;;;;5084983;28;20066;-56
2022/04/14 09:59:20;;;;;;;5.97;4.07;;;18.00;99.90;;;;;;5076524;28;20019;-55
2022/04/14 10:01:48;;;;;;;7.38;4.65;;;18.10;99.90;;;;;;5080282;28;20019;-51
2022/04/14 10:04:32;;;;;;;6.38;4.47;;;18.20;99.90;;;;;;5097161;28;20143;-53
2022/04/14 10:07:05;;;;;;;5.75;4.40;;;18.30;99.90;;;;;;5108447;28;20390;-54
2022/04/14 10:09:31;;;;;;;9.15;4.75;;;18.50;99.90;;;;;;5098571;28;20028;-52
2022/04/14 10:12:02;;;;;;;6.53;4.70;;;18.50;99.90;;;;;;5098654;28;20028;-52
2022/04/14 10:14:28;;;;;;;;;;;18.30;99.90;;;;;;5117186;28;20023;-51
2022/04/14 10:16:57;;;;;;;5.20;4.10;;;18.60;99.90;;;;;;5098824;28;19904;-51
2022/04/14 10:19:23;;;;;;;5.35;3.42;;;18.70;99.90;;;;;;5116648;28;20016;-51
2022/04/14 10:21:49;;;;;;;3.40;2.67;;;18.90;99.90;;;;;;5116420;28;20019;-57
2022/04/14 10:24:17;;;;;;;7.78;4.22;;;19.20;99.90;;;;;;5098015;28;20481;-52
2022/04/14 10:26:43;;;;;;;12.25;5.45;;;19.40;99.90;;;;;;5116722;28;20027;-54
2022/04/14 10:29:12;;;;;;;7.20;4.18;;;19.20;99.90;;;;;;5117235;28;20026;-55
2022/04/14 10:31:38;;;;;;;7.20;3.20;;;18.90;99.90;;;;;;5097906;28;20031;-53
2022/04/14 10:34:07;;;;;;;6.30;3.65;;;19.20;99.90;;;;;;5116119;28;20032;-53
2022/04/14 10:36:38;;;;;;;4.90;3.92;;;19.30;99.90;;;;;;5116362;28;20019;-57
2022/04/14 10:39:05;;;;;;;6.40;4.03;;;19.50;99.90;;;;;;5098504;28;20051;-50
2022/04/14 10:41:35;;;;;;;6.57;3.92;;;19.20;99.90;;;;;;5097749;28;20039;-55
2022/04/14 10:44:02;;;;;;;5.05;3.50;;;19.20;99.90;;;;;;5097766;28;20046;-54
2022/04/14 10:46:48;;;;;;;8.35;3.22;;;19.40;99.90;;;;;;5115857;28;20028;-55
2022/04/14 10:49:15;;;;;;;4.78;3.10;;;19.20;99.90;;;;;;5097545;28;20024;-48
2022/04/14 10:51:43;;;;;;;8.57;3.40;;;19.10;99.90;;;;;;5115805;28;20031;-52
2022/04/14 10:54:12;;;;;;;4.10;3.20;;;19.10;99.90;;;;;;5115635;28;20070;-48
2022/04/14 10:56:38;;;;;;;4.65;3.33;;;18.70;99.90;;;;;;5115724;28;20051;-48
2022/04/14 10:59:15;;;;;;;8.85;3.28;;;18.70;99.90;;;;;;5097408;28;20023;-52
2022/04/14 11:02:31;;;;;;;7.82;3.25;;;18.40;99.90;;;;;;5115602;28;20051;-48
2022/04/14 11:04:57;;;;;;;7.10;3.65;;;18.40;99.90;;;;;;5097164;28;20028;-50
2022/04/14 11:07:23;;;;;;;4.82;3.05;;;18.50;99.90;;;;;;5097545;28;20032;-51
2022/04/14 11:09:58;;;;;;;5.32;3.40;;;18.80;99.90;;;;;;5092595;28;20489;-51
2022/04/14 11:12:27;;;;;;;6.82;4.00;;;18.90;99.90;;;;;;5076337;28;20050;-49
2022/04/14 11:15:08;;;;;;;10.20;3.40;;;18.90;99.90;;;;;;5094717;28;20483;-51
2022/04/14 11:17:48;;;;;;;7.00;3.33;;;18.60;99.90;;;;;;5077173;28;20129;-52
2022/04/14 11:20:35;;;;;;;13.15;4.50;;;18.50;99.90;;;;;;5094734;28;20052;-49
2022/04/14 11:23:38;;;;;;;9.05;3.67;;;18.30;99.90;;;;;;5098431;28;20087;-54
2022/04/14 11:26:07;;;;;;;8.05;3.80;;;18.20;99.90;;;;;;5097018;28;20016;-54
2022/04/14 11:28:42;;;;;;;5.63;4.22;;;18.10;99.90;;;;;;5097191;28;20031;-48
2022/04/14 11:31:47;;;;;;;6.32;3.47;;;18.10;99.90;;;;;;5113049;28;20023;-51
2022/04/14 11:34:31;;;;;;;7.95;2.70;;;18.20;99.90;;;;;;5093524;28;20016;-48
2022/04/14 11:36:57;;;;;;;4.05;3.08;;;18.60;99.90;;;;;;5094416;28;20024;-55
2022/04/14 11:39:25;;;;;;;7.28;3.50;;;18.80;99.90;;;;;;5076292;28;20490;-55
2022/04/14 11:41:53;;;;;;;8.70;3.78;;;19.10;99.90;;;;;;5076975;28;20074;-49
2022/04/14 11:44:21;;;;;;;6.03;3.08;;;19.40;99.90;;;;;;5076137;28;20065;-49
2022/04/14 11:46:55;;;;;;;6.07;3.83;;;19.60;99.90;;;;;;5094215;28;20483;-49
2022/04/14 11:49:26;;;;;;;6.68;4.13;;;19.30;99.90;;;;;;5094251;28;20020;-50
2022/04/14 11:51:53;;;;;;;7.45;3.83;;;19.40;99.90;;;;;;5076067;28;20028;-50
2022/04/14 11:54:20;;;;;;;7.30;3.25;;;19.10;99.90;;;;;;5075819;28;20032;-52
2022/04/14 11:56:53;;;;;;;6.22;3.55;;;19.10;99.90;;;;;;5100408;28;20033;-48
2022/04/14 11:59:29;;;;;;;8.73;3.83;;;19.20;99.90;;;;;;5080076;28;20027;-51
2022/04/14 12:01:59;;;;;;;4.22;2.60;;;19.20;99.90;;;;;;5085362;28;20053;-51
2022/04/14 12:04:25;;;;;;;4.30;3.40;;;19.00;99.90;;;;;;5096420;28;20354;-50
2022/04/14 12:06:55;;;;;;;4.10;2.55;;;18.70;99.90;;;;;;5092612;28;20035;-50
2022/04/14 12:09:22;;;;;;;6.65;3.20;;;19.00;99.90;;;;;;5114457;28;20124;-51
2022/04/14 12:11:48;;;;;;;5.25;2.47;;;19.20;99.90;;;;;;5114244;28;20042;-52
2022/04/14 12:14:16;;;;;;;4.32;2.50;;;19.40;99.90;;;;;;5095893;28;20020;-52
2022/04/14 12:16:52;;;;;;;5.40;2.90;;;19.60;99.90;;;;;;5106019;28;20386;-53
2022/04/14 12:19:19;;;;;;;2.38;1.83;;;19.80;99.90;;;;;;5093852;28;20027;-56
2022/04/14 12:22:02;;;;;;;3.63;2.50;;;20.00;99.90;;;;;;5075949;28;20413;-49
2022/04/14 12:24:29;;;;;;;5.57;2.95;;;20.10;99.90;;;;;;5093628;28;20030;-54
2022/04/14 12:26:56;;;;;;;5.07;2.83;;;20.30;99.90;;;;;;5075507;28;20406;-49
2022/04/14 12:29:22;;;;;;;5.75;3.15;;;20.30;99.90;;;;;;5093653;28;20082;-52
2022/04/14 12:31:48;;;;;;;4.15;2.45;;;20.40;99.90;;;;;;5075374;28;20028;-51
2022/04/14 12:34:14;;;;;;;6.72;2.95;;;20.50;99.90;;;;;;5092500;28;20026;-48
2022/04/14 12:36:40;;;;;;;6.75;3.03;;;20.10;99.90;;;;;;5092757;28;20020;-50
2022/04/14 12:39:27;;;;;;;5.85;2.70;;;19.90;99.90;;;;;;5093469;28;20060;-49
2022/04/14 12:41:53;;;;;;;7.57;2.83;;;19.80;99.90;;;;;;5095562;28;20019;-49
2022/04/14 12:44:22;;;;;;;6.50;2.85;;;19.30;99.90;;;;;;5095535;28;20059;-48